sensor_id;sensor_type;location;lat;lon;timestamp;pressure;altitude;pressure_sealevel;temperature;humidity
39223;BME280;24936;46.328;11.026;2024-02-14T00:00:57;94855.47;;;-0.67;100.00
39223;BME280;24936;46.328;11.026;2024-02-14T00:03:23;94860.56;;;-0.87;100.00
39223;BME280;24936;46.328;11.026;2024-02-14T00:05:49;94868.63;;;-0.73;100.00
39223;BME280;24936;46.328;11.026;2024-02-14T00:08:14;94854.75;;;-0.93;100.00
39223;BME280;24936;46.328;11.026;2024-02-14T00:10:40;94859.06;;;-0.71;100.00
39223;BME280;24936;46.328;11.026;2024-02-14T00:13:05;94866.72;;;-0.47;100.00
39223;BME280;24936;46.328;11.026;2024-02-14T00:15:31;94868.19;;;-0.62;100.00
39223;BME280;24936;46.328;11.026;2024-02-14T00:17:56;94863.84;;;-0.62;100.00
39223;BME280;24936;46.328;11.026;2024-02-14T00:20:22;94871.75;;;-0.65;100.00
39223;BME280;24936;46.328;11.026;2024-02-14T00:22:47;94874.97;;;-0.59;100.00
39223;BME280;24936;46.328;11.026;2024-02-14T00:25:13;94876.78;;;-0.62;100.00
39223;BME280;24936;46.328;11.026;2024-02-14T00:27:39;94881.78;;;-0.57;100.00
39223;BME280;24936;46.328;11.026;2024-02-14T00:30:05;94868.78;;;-0.55;100.00
39223;BME280;24936;46.328;11.026;2024-02-14T00:32:31;94881.66;;;-0.76;100.00
39223;BME280;24936;46.328;11.026;2024-02-14T00:34:57;94877.13;;;-0.91;100.00
39223;BME280;24936;46.328;11.026;2024-02-14T00:37:22;94878.66;;;-0.87;100.00
39223;BME280;24936;46.328;11.026;2024-02-14T00:39:48;94879.25;;;-1.03;100.00
39223;BME280;24936;46.328;11.026;2024-02-14T00:42:15;94877.94;;;-1.13;100.00
39223;BME280;24936;46.328;11.026;2024-02-14T00:44:40;94875.25;;;-0.88;100.00
39223;BME280;24936;46.328;11.026;2024-02-14T00:47:06;94876.94;;;-0.87;100.00
39223;BME280;24936;46.328;11.026;2024-02-14T00:49:34;94881.31;;;-1.11;100.00
39223;BME280;24936;46.328;11.026;2024-02-14T00:52:00;94880.19;;;-1.26;100.00
39223;BME280;24936;46.328;11.026;2024-02-14T00:54:25;94887.44;;;-1.36;100.00
39223;BME280;24936;46.328;11.026;2024-02-14T00:56:51;94879.25;;;-1.47;100.00
39223;BME280;24936;46.328;11.026;2024-02-14T00:59:16;94885.78;;;-1.62;100.00
39223;BME280;24936;46.328;11.026;2024-02-14T01:01:42;94885.19;;;-1.69;100.00
39223;BME280;24936;46.328;11.026;2024-02-14T01:04:07;94875.09;;;-1.75;100.00
39223;BME280;24936;46.328;11.026;2024-02-14T01:06:33;94876.38;;;-1.63;100.00
39223;BME280;24936;46.328;11.026;2024-02-14T01:08:58;94880.84;;;-1.92;100.00
39223;BME280;24936;46.328;11.026;2024-02-14T01:11:23;94880.53;;;-2.08;100.00
39223;BME280;24936;46.328;11.026;2024-02-14T01:13:49;94880.91;;;-2.19;100.00
39223;BME280;24936;46.328;11.026;2024-02-14T01:16:14;94871.75;;;-2.28;100.00
39223;BME280;24936;46.328;11.026;2024-02-14T01:18:40;94872.50;;;-2.24;100.00
39223;BME280;24936;46.328;11.026;2024-02-14T01:21:06;94884.09;;;-2.11;100.00
39223;BME280;24936;46.328;11.026;2024-02-14T01:23:32;94881.38;;;-2.08;100.00
39223;BME280;24936;46.328;11.026;2024-02-14T01:25:57;94879.34;;;-2.23;100.00
39223;BME280;24936;46.328;11.026;2024-02-14T01:28:23;94871.88;;;-2.31;100.00
39223;BME280;24936;46.328;11.026;2024-02-14T01:30:48;94876.38;;;-1.87;100.00
39223;BME280;24936;46.328;11.026;2024-02-14T01:33:15;94874.25;;;-2.01;100.00
39223;BME280;24936;46.328;11.026;2024-02-14T01:35:41;94881.06;;;-2.24;100.00
39223;BME280;24936;46.328;11.026;2024-02-14T01:38:08;94883.88;;;-2.30;100.00
39223;BME280;24936;46.328;11.026;2024-02-14T01:40:33;94888.53;;;-2.16;100.00
39223;BME280;24936;46.328;11.026;2024-02-14T01:42:58;94881.63;;;-2.16;100.00
39223;BME280;24936;46.328;11.026;2024-02-14T01:45:24;94886.56;;;-2.33;100.00
39223;BME280;24936;46.328;11.026;2024-02-14T01:47:50;94887.44;;;-2.34;100.00
39223;BME280;24936;46.328;11.026;2024-02-14T01:50:16;94876.72;;;-2.22;100.00
39223;BME280;24936;46.328;11.026;2024-02-14T01:52:44;94888.66;;;-1.94;100.00
39223;BME280;24936;46.328;11.026;2024-02-14T01:55:12;94883.75;;;-2.02;100.00
39223;BME280;24936;46.328;11.026;2024-02-14T01:57:38;94881.78;;;-1.95;100.00
39223;BME280;24936;46.328;11.026;2024-02-14T02:00:04;94886.44;;;-2.05;100.00
39223;BME280;24936;46.328;11.026;2024-02-14T02:02:34;94891.56;;;-2.03;100.00
39223;BME280;24936;46.328;11.026;2024-02-14T02:05:02;94893.66;;;-2.15;100.00
39223;BME280;24936;46.328;11.026;2024-02-14T02:07:27;94891.06;;;-2.15;100.00
39223;BME280;24936;46.328;11.026;2024-02-14T02:09:53;94890.53;;;-1.99;100.00
39223;BME280;24936;46.328;11.026;2024-02-14T02:12:18;94891.00;;;-1.88;100.00
39223;BME280;24936;46.328;11.026;2024-02-14T02:14:43;94887.78;;;-1.94;100.00
39223;BME280;24936;46.328;11.026;2024-02-14T02:17:09;94886.25;;;-2.00;100.00
39223;BME280;24936;46.328;11.026;2024-02-14T02:19:36;94895.75;;;-1.75;100.00
39223;BME280;24936;46.328;11.026;2024-02-14T02:22:02;94891.06;;;-1.65;100.00
39223;BME280;24936;46.328;11.026;2024-02-14T02:24:28;94896.22;;;-1.65;100.00
39223;BME280;24936;46.328;11.026;2024-02-14T02:26:54;94901.56;;;-1.70;100.00
39223;BME280;24936;46.328;11.026;2024-02-14T02:29:22;94893.81;;;-1.70;100.00
39223;BME280;24936;46.328;11.026;2024-02-14T02:31:47;94901.47;;;-1.67;100.00
39223;BME280;24936;46.328;11.026;2024-02-14T02:34:13;94892.66;;;-1.61;100.00
39223;BME280;24936;46.328;11.026;2024-02-14T02:36:39;94893.50;;;-1.37;100.00
39223;BME280;24936;46.328;11.026;2024-02-14T02:39:05;94889.78;;;-1.54;100.00
39223;BME280;24936;46.328;11.026;2024-02-14T02:41:31;94905.47;;;-1.60;100.00
39223;BME280;24936;46.328;11.026;2024-02-14T02:43:59;94902.88;;;-1.58;100.00
39223;BME280;24936;46.328;11.026;2024-02-14T02:46:27;94903.34;;;-1.25;100.00
39223;BME280;24936;46.328;11.026;2024-02-14T02:48:52;94901.81;;;-1.52;100.00
39223;BME280;24936;46.328;11.026;2024-02-14T02:51:20;94907.97;;;-1.80;100.00
39223;BME280;24936;46.328;11.026;2024-02-14T02:53:46;94905.84;;;-1.69;100.00
39223;BME280;24936;46.328;11.026;2024-02-14T02:56:12;94907.63;;;-1.71;100.00
39223;BME280;24936;46.328;11.026;2024-02-14T02:58:40;94909.66;;;-1.79;100.00
39223;BME280;24936;46.328;11.026;2024-02-14T03:01:09;94912.56;;;-1.89;100.00
39223;BME280;24936;46.328;11.026;2024-02-14T03:03:35;94908.41;;;-1.93;100.00
39223;BME280;24936;46.328;11.026;2024-02-14T03:06:03;94911.78;;;-1.91;100.00
39223;BME280;24936;46.328;11.026;2024-02-14T03:08:29;94910.91;;;-1.91;100.00
39223;BME280;24936;46.328;11.026;2024-02-14T03:10:56;94911.00;;;-1.94;100.00
39223;BME280;24936;46.328;11.026;2024-02-14T03:13:25;94914.50;;;-1.95;100.00
39223;BME280;24936;46.328;11.026;2024-02-14T03:15:52;94909.03;;;-1.86;100.00
39223;BME280;24936;46.328;11.026;2024-02-14T03:18:17;94910.63;;;-1.83;100.00
39223;BME280;24936;46.328;11.026;2024-02-14T03:20:43;94906.97;;;-1.76;100.00
39223;BME280;24936;46.328;11.026;2024-02-14T03:23:08;94910.34;;;-1.74;100.00
39223;BME280;24936;46.328;11.026;2024-02-14T03:25:33;94918.75;;;-1.69;100.00
39223;BME280;24936;46.328;11.026;2024-02-14T03:28:02;94909.28;;;-1.68;100.00
39223;BME280;24936;46.328;11.026;2024-02-14T03:30:32;94915.44;;;-1.73;100.00
39223;BME280;24936;46.328;11.026;2024-02-14T03:32:59;94916.16;;;-1.69;100.00
39223;BME280;24936;46.328;11.026;2024-02-14T03:35:24;94919.53;;;-1.67;100.00
39223;BME280;24936;46.328;11.026;2024-02-14T03:37:52;94922.91;;;-1.65;100.00
39223;BME280;24936;46.328;11.026;2024-02-14T03:40:18;94922.47;;;-1.52;100.00
39223;BME280;24936;46.328;11.026;2024-02-14T03:42:45;94920.78;;;-1.54;100.00
39223;BME280;24936;46.328;11.026;2024-02-14T03:45:11;94924.25;;;-1.55;100.00
39223;BME280;24936;46.328;11.026;2024-02-14T03:47:37;94927.63;;;-1.52;100.00
39223;BME280;24936;46.328;11.026;2024-02-14T03:50:06;94936.38;;;-1.57;100.00
39223;BME280;24936;46.328;11.026;2024-02-14T03:52:32;94926.00;;;-1.55;100.00
39223;BME280;24936;46.328;11.026;2024-02-14T03:54:59;94929.97;;;-1.70;100.00
39223;BME280;24936;46.328;11.026;2024-02-14T03:57:25;94938.72;;;-1.74;100.00
39223;BME280;24936;46.328;11.026;2024-02-14T03:59:54;94929.31;;;-1.51;100.00
39223;BME280;24936;46.328;11.026;2024-02-14T04:02:20;94937.84;;;-1.49;100.00
39223;BME280;24936;46.328;11.026;2024-02-14T04:04:45;94940.88;;;-1.62;100.00
39223;BME280;24936;46.328;11.026;2024-02-14T04:07:12;94944.09;;;-1.80;100.00
39223;BME280;24936;46.328;11.026;2024-02-14T04:09:37;94941.03;;;-1.92;100.00
39223;BME280;24936;46.328;11.026;2024-02-14T04:12:03;94928.34;;;-1.98;100.00
39223;BME280;24936;46.328;11.026;2024-02-14T04:14:29;94931.72;;;-1.96;100.00
39223;BME280;24936;46.328;11.026;2024-02-14T04:16:54;94925.75;;;-1.98;100.00
39223;BME280;24936;46.328;11.026;2024-02-14T04:19:20;94931.44;;;-1.88;100.00
39223;BME280;24936;46.328;11.026;2024-02-14T04:21:46;94936.19;;;-2.01;100.00
39223;BME280;24936;46.328;11.026;2024-02-14T04:24:11;94935.63;;;-2.09;100.00
39223;BME280;24936;46.328;11.026;2024-02-14T04:26:37;94936.31;;;-2.04;100.00
39223;BME280;24936;46.328;11.026;2024-02-14T04:29:02;94936.81;;;-2.20;100.00
39223;BME280;24936;46.328;11.026;2024-02-14T04:31:28;94929.75;;;-2.15;100.00
39223;BME280;24936;46.328;11.026;2024-02-14T04:33:55;94932.41;;;-1.91;100.00
39223;BME280;24936;46.328;11.026;2024-02-14T04:36:21;94932.16;;;-1.59;100.00
39223;BME280;24936;46.328;11.026;2024-02-14T04:38:50;94934.38;;;-1.48;100.00
39223;BME280;24936;46.328;11.026;2024-02-14T04:41:17;94941.69;;;-1.85;100.00
39223;BME280;24936;46.328;11.026;2024-02-14T04:43:42;94946.97;;;-2.15;100.00
39223;BME280;24936;46.328;11.026;2024-02-14T04:46:08;94945.56;;;-2.24;100.00
39223;BME280;24936;46.328;11.026;2024-02-14T04:48:36;94941.28;;;-2.25;100.00
39223;BME280;24936;46.328;11.026;2024-02-14T04:51:03;94944.75;;;-2.26;100.00
39223;BME280;24936;46.328;11.026;2024-02-14T04:53:30;94940.16;;;-2.43;100.00
39223;BME280;24936;46.328;11.026;2024-02-14T04:55:56;94924.13;;;-2.51;100.00
39223;BME280;24936;46.328;11.026;2024-02-14T04:58:21;94932.53;;;-2.46;100.00
39223;BME280;24936;46.328;11.026;2024-02-14T05:00:47;94930.47;;;-2.36;100.00
39223;BME280;24936;46.328;11.026;2024-02-14T05:03:12;94933.88;;;-2.34;100.00
39223;BME280;24936;46.328;11.026;2024-02-14T05:05:38;94935.97;;;-2.46;100.00
39223;BME280;24936;46.328;11.026;2024-02-14T05:08:04;94942.03;;;-2.48;100.00
39223;BME280;24936;46.328;11.026;2024-02-14T05:10:33;94925.00;;;-2.27;100.00
39223;BME280;24936;46.328;11.026;2024-02-14T05:12:59;94933.38;;;-2.46;100.00
39223;BME280;24936;46.328;11.026;2024-02-14T05:15:24;94929.88;;;-2.71;100.00
39223;BME280;24936;46.328;11.026;2024-02-14T05:17:50;94926.00;;;-2.85;100.00
39223;BME280;24936;46.328;11.026;2024-02-14T05:20:16;94924.94;;;-2.78;100.00
39223;BME280;24936;46.328;11.026;2024-02-14T05:22:42;94932.72;;;-2.79;100.00
39223;BME280;24936;46.328;11.026;2024-02-14T05:25:08;94937.25;;;-2.59;100.00
39223;BME280;24936;46.328;11.026;2024-02-14T05:27:37;94938.94;;;-2.58;100.00
39223;BME280;24936;46.328;11.026;2024-02-14T05:30:04;94942.91;;;-2.48;100.00
39223;BME280;24936;46.328;11.026;2024-02-14T05:32:34;94950.25;;;-2.64;100.00
39223;BME280;24936;46.328;11.026;2024-02-14T05:35:00;94941.22;;;-2.77;100.00
39223;BME280;24936;46.328;11.026;2024-02-14T05:37:26;94946.59;;;-2.83;100.00
39223;BME280;24936;46.328;11.026;2024-02-14T05:39:55;94949.47;;;-2.94;100.00
39223;BME280;24936;46.328;11.026;2024-02-14T05:42:20;94947.53;;;-2.86;100.00
39223;BME280;24936;46.328;11.026;2024-02-14T05:44:47;94952.56;;;-2.54;100.00
39223;BME280;24936;46.328;11.026;2024-02-14T05:47:12;94954.97;;;-2.77;100.00
39223;BME280;24936;46.328;11.026;2024-02-14T05:49:41;94953.38;;;-2.81;100.00
39223;BME280;24936;46.328;11.026;2024-02-14T05:52:08;94960.44;;;-2.59;100.00
39223;BME280;24936;46.328;11.026;2024-02-14T05:54:34;94970.94;;;-2.65;100.00
39223;BME280;24936;46.328;11.026;2024-02-14T05:57:00;94974.13;;;-2.85;100.00
39223;BME280;24936;46.328;11.026;2024-02-14T05:59:27;94965.03;;;-2.97;100.00
39223;BME280;24936;46.328;11.026;2024-02-14T06:01:52;94958.47;;;-3.08;100.00
39223;BME280;24936;46.328;11.026;2024-02-14T06:04:18;94962.88;;;-3.11;100.00
39223;BME280;24936;46.328;11.026;2024-02-14T06:06:44;94957.34;;;-2.99;100.00
39223;BME280;24936;46.328;11.026;2024-02-14T06:09:09;94953.31;;;-3.08;100.00
39223;BME280;24936;46.328;11.026;2024-02-14T06:11:37;94954.25;;;-3.10;100.00
39223;BME280;24936;46.328;11.026;2024-02-14T06:14:05;94958.25;;;-3.00;100.00
39223;BME280;24936;46.328;11.026;2024-02-14T06:16:32;94969.38;;;-2.99;100.00
39223;BME280;24936;46.328;11.026;2024-02-14T06:18:58;94961.75;;;-3.02;100.00
39223;BME280;24936;46.328;11.026;2024-02-14T06:21:23;94966.06;;;-3.03;100.00
39223;BME280;24936;46.328;11.026;2024-02-14T06:23:50;94971.53;;;-3.14;100.00
39223;BME280;24936;46.328;11.026;2024-02-14T06:26:16;94977.47;;;-3.12;100.00
39223;BME280;24936;46.328;11.026;2024-02-14T06:28:43;94976.53;;;-2.79;100.00
39223;BME280;24936;46.328;11.026;2024-02-14T06:31:09;94979.22;;;-2.84;100.00
39223;BME280;24936;46.328;11.026;2024-02-14T06:33:35;94977.09;;;-2.99;100.00
39223;BME280;24936;46.328;11.026;2024-02-14T06:36:01;94967.13;;;-2.82;100.00
39223;BME280;24936;46.328;11.026;2024-02-14T06:38:26;94971.84;;;-2.95;100.00
39223;BME280;24936;46.328;11.026;2024-02-14T06:40:52;94972.16;;;-3.05;100.00
39223;BME280;24936;46.328;11.026;2024-02-14T06:43:17;94985.09;;;-2.79;100.00
39223;BME280;24936;46.328;11.026;2024-02-14T06:45:42;94988.75;;;-2.86;100.00
39223;BME280;24936;46.328;11.026;2024-02-14T06:48:09;94984.56;;;-2.90;100.00
39223;BME280;24936;46.328;11.026;2024-02-14T06:50:34;94990.09;;;-3.02;100.00
39223;BME280;24936;46.328;11.026;2024-02-14T06:53:00;94986.72;;;-3.04;100.00
39223;BME280;24936;46.328;11.026;2024-02-14T06:55:28;94995.72;;;-2.89;100.00
39223;BME280;24936;46.328;11.026;2024-02-14T06:57:57;95005.19;;;-2.90;100.00
39223;BME280;24936;46.328;11.026;2024-02-14T07:00:23;95018.31;;;-2.99;100.00
39223;BME280;24936;46.328;11.026;2024-02-14T07:02:48;95012.19;;;-2.94;100.00
39223;BME280;24936;46.328;11.026;2024-02-14T07:05:14;95009.81;;;-3.01;100.00
39223;BME280;24936;46.328;11.026;2024-02-14T07:07:40;95015.00;;;-3.03;100.00
39223;BME280;24936;46.328;11.026;2024-02-14T07:10:07;95015.13;;;-3.08;100.00
39223;BME280;24936;46.328;11.026;2024-02-14T07:12:32;95021.00;;;-3.02;100.00
39223;BME280;24936;46.328;11.026;2024-02-14T07:14:58;95025.66;;;-2.85;100.00
39223;BME280;24936;46.328;11.026;2024-02-14T07:17:23;95025.31;;;-2.44;100.00
39223;BME280;24936;46.328;11.026;2024-02-14T07:19:49;95028.78;;;-2.46;100.00
39223;BME280;24936;46.328;11.026;2024-02-14T07:22:15;95025.94;;;-2.66;100.00
39223;BME280;24936;46.328;11.026;2024-02-14T07:24:41;95028.59;;;-2.68;100.00
39223;BME280;24936;46.328;11.026;2024-02-14T07:27:08;95040.13;;;-2.51;100.00
39223;BME280;24936;46.328;11.026;2024-02-14T07:29:34;95036.38;;;-2.41;100.00
39223;BME280;24936;46.328;11.026;2024-02-14T07:32:01;95026.22;;;-2.19;100.00
39223;BME280;24936;46.328;11.026;2024-02-14T07:34:27;95031.91;;;-2.09;100.00
39223;BME280;24936;46.328;11.026;2024-02-14T07:36:55;95036.88;;;-2.03;100.00
39223;BME280;24936;46.328;11.026;2024-02-14T07:39:20;95045.56;;;-1.80;100.00
39223;BME280;24936;46.328;11.026;2024-02-14T07:41:46;95055.66;;;-1.72;100.00
39223;BME280;24936;46.328;11.026;2024-02-14T07:44:12;95049.78;;;-1.50;100.00
39223;BME280;24936;46.328;11.026;2024-02-14T07:46:37;95055.66;;;-1.21;100.00
39223;BME280;24936;46.328;11.026;2024-02-14T07:49:03;95061.75;;;-0.99;100.00
39223;BME280;24936;46.328;11.026;2024-02-14T07:51:29;95065.47;;;-0.82;100.00
39223;BME280;24936;46.328;11.026;2024-02-14T07:53:59;95066.28;;;-0.82;100.00
39223;BME280;24936;46.328;11.026;2024-02-14T07:56:24;95066.56;;;0.03;100.00
39223;BME280;24936;46.328;11.026;2024-02-14T07:58:50;95069.81;;;0.49;100.00
39223;BME280;24936;46.328;11.026;2024-02-14T08:01:15;95077.47;;;0.94;100.00
39223;BME280;24936;46.328;11.026;2024-02-14T08:03:40;95081.69;;;0.75;100.00
39223;BME280;24936;46.328;11.026;2024-02-14T08:06:06;95083.44;;;0.54;100.00
39223;BME280;24936;46.328;11.026;2024-02-14T08:08:31;95077.78;;;0.44;100.00
39223;BME280;24936;46.328;11.026;2024-02-14T08:10:57;95079.78;;;0.17;100.00
39223;BME280;24936;46.328;11.026;2024-02-14T08:13:22;95084.69;;;0.23;100.00
39223;BME280;24936;46.328;11.026;2024-02-14T08:15:48;95085.63;;;0.64;100.00
39223;BME280;24936;46.328;11.026;2024-02-14T08:18:14;95092.13;;;0.95;100.00
39223;BME280;24936;46.328;11.026;2024-02-14T08:20:40;95094.13;;;1.09;100.00
39223;BME280;24936;46.328;11.026;2024-02-14T08:23:06;95092.81;;;0.98;100.00
39223;BME280;24936;46.328;11.026;2024-02-14T08:25:31;95104.16;;;0.96;100.00
39223;BME280;24936;46.328;11.026;2024-02-14T08:27:57;95098.72;;;1.02;100.00
39223;BME280;24936;46.328;11.026;2024-02-14T08:30:22;95098.31;;;1.11;100.00
39223;BME280;24936;46.328;11.026;2024-02-14T08:32:48;95094.72;;;0.95;100.00
39223;BME280;24936;46.328;11.026;2024-02-14T08:35:13;95093.56;;;0.81;100.00
39223;BME280;24936;46.328;11.026;2024-02-14T08:37:39;95090.06;;;0.82;100.00
39223;BME280;24936;46.328;11.026;2024-02-14T08:40:06;95093.56;;;0.81;100.00
39223;BME280;24936;46.328;11.026;2024-02-14T08:42:35;95095.31;;;0.81;100.00
39223;BME280;24936;46.328;11.026;2024-02-14T08:45:01;95101.31;;;0.81;100.00
39223;BME280;24936;46.328;11.026;2024-02-14T08:47:26;95090.38;;;0.95;100.00
39223;BME280;24936;46.328;11.026;2024-02-14T08:49:52;95086.00;;;1.16;100.00
39223;BME280;24936;46.328;11.026;2024-02-14T08:52:17;95079.97;;;1.35;100.00
39223;BME280;24936;46.328;11.026;2024-02-14T08:54:44;95083.34;;;1.56;100.00
39223;BME280;24936;46.328;11.026;2024-02-14T08:57:09;95087.28;;;1.65;100.00
39223;BME280;24936;46.328;11.026;2024-02-14T08:59:35;95081.66;;;1.74;100.00
39223;BME280;24936;46.328;11.026;2024-02-14T09:02:00;95083.19;;;2.34;100.00
39223;BME280;24936;46.328;11.026;2024-02-14T09:04:26;95087.53;;;3.04;100.00
39223;BME280;24936;46.328;11.026;2024-02-14T09:06:52;95074.66;;;4.77;100.00
39223;BME280;24936;46.328;11.026;2024-02-14T09:09:18;95073.31;;;6.69;100.00
39223;BME280;24936;46.328;11.026;2024-02-14T09:11:45;95076.91;;;7.72;100.00
39223;BME280;24936;46.328;11.026;2024-02-14T09:14:12;95083.28;;;8.91;100.00
39223;BME280;24936;46.328;11.026;2024-02-14T09:16:37;95089.69;;;7.76;100.00
39223;BME280;24936;46.328;11.026;2024-02-14T09:19:04;95101.06;;;9.45;100.00
39223;BME280;24936;46.328;11.026;2024-02-14T09:21:31;95105.66;;;11.21;100.00
39223;BME280;24936;46.328;11.026;2024-02-14T09:24:02;95106.28;;;10.59;100.00
39223;BME280;24936;46.328;11.026;2024-02-14T09:26:28;95095.25;;;9.99;100.00
39223;BME280;24936;46.328;11.026;2024-02-14T09:28:54;95102.16;;;11.93;100.00
39223;BME280;24936;46.328;11.026;2024-02-14T09:31:20;95095.16;;;10.88;100.00
39223;BME280;24936;46.328;11.026;2024-02-14T09:33:49;95098.63;;;11.10;100.00
39223;BME280;24936;46.328;11.026;2024-02-14T09:36:15;95096.06;;;10.98;100.00
39223;BME280;24936;46.328;11.026;2024-02-14T09:38:42;95102.88;;;9.90;100.00
39223;BME280;24936;46.328;11.026;2024-02-14T09:43:45;95096.19;;;11.91;100.00
39223;BME280;24936;46.328;11.026;2024-02-14T09:46:14;95103.19;;;13.71;100.00
39223;BME280;24936;46.328;11.026;2024-02-14T09:48:44;95101.09;;;14.58;76.67
39223;BME280;24936;46.328;11.026;2024-02-14T09:51:11;95090.94;;;14.99;80.39
39223;BME280;24936;46.328;11.026;2024-02-14T09:53:38;95092.03;;;13.77;82.45
39223;BME280;24936;46.328;11.026;2024-02-14T09:56:04;95084.06;;;11.48;94.81
39223;BME280;24936;46.328;11.026;2024-02-14T09:58:34;95076.09;;;12.41;94.48
39223;BME280;24936;46.328;11.026;2024-02-14T10:00:59;95071.22;;;10.91;100.00
39223;BME280;24936;46.328;11.026;2024-02-14T10:03:25;95061.13;;;10.96;100.00
39223;BME280;24936;46.328;11.026;2024-02-14T10:05:51;95072.25;;;10.67;100.00
39223;BME280;24936;46.328;11.026;2024-02-14T10:08:18;95065.16;;;10.47;100.00
39223;BME280;24936;46.328;11.026;2024-02-14T10:10:46;95063.09;;;10.50;100.00
39223;BME280;24936;46.328;11.026;2024-02-14T10:13:11;95061.31;;;11.47;100.00
39223;BME280;24936;46.328;11.026;2024-02-14T10:15:36;95062.13;;;10.84;100.00
39223;BME280;24936;46.328;11.026;2024-02-14T10:18:02;95058.53;;;9.97;100.00
39223;BME280;24936;46.328;11.026;2024-02-14T10:20:28;95055.44;;;9.92;100.00
39223;BME280;24936;46.328;11.026;2024-02-14T10:23:03;95056.78;;;9.86;100.00
39223;BME280;24936;46.328;11.026;2024-02-14T10:25:34;95056.88;;;9.62;100.00
39223;BME280;24936;46.328;11.026;2024-02-14T10:28:06;95030.66;;;10.61;100.00
39223;BME280;24936;46.328;11.026;2024-02-14T10:30:35;95034.09;;;9.74;100.00
39223;BME280;24936;46.328;11.026;2024-02-14T10:33:02;95043.53;;;9.65;100.00
39223;BME280;24936;46.328;11.026;2024-02-14T10:35:30;95034.88;;;9.29;100.00
39223;BME280;24936;46.328;11.026;2024-02-14T10:37:58;95029.75;;;9.27;100.00
39223;BME280;24936;46.328;11.026;2024-02-14T10:40:27;95027.13;;;9.50;100.00
39223;BME280;24936;46.328;11.026;2024-02-14T10:42:53;95030.97;;;8.76;100.00
39223;BME280;24936;46.328;11.026;2024-02-14T10:45:19;95030.59;;;9.28;100.00
39223;BME280;24936;46.328;11.026;2024-02-14T10:47:46;95023.22;;;8.75;100.00
39223;BME280;24936;46.328;11.026;2024-02-14T10:50:15;95016.84;;;8.90;100.00
39223;BME280;24936;46.328;11.026;2024-02-14T10:52:41;95017.59;;;9.26;100.00
39223;BME280;24936;46.328;11.026;2024-02-14T10:55:07;95018.53;;;9.14;100.00
39223;BME280;24936;46.328;11.026;2024-02-14T10:57:34;95019.34;;;9.83;100.00
39223;BME280;24936;46.328;11.026;2024-02-14T11:00:03;95014.41;;;10.77;100.00
39223;BME280;24936;46.328;11.026;2024-02-14T11:02:30;95014.75;;;10.84;99.64
39223;BME280;24936;46.328;11.026;2024-02-14T11:04:58;95010.31;;;10.84;99.64
39223;BME280;24936;46.328;11.026;2024-02-14T11:07:23;95007.19;;;10.25;96.40
39223;BME280;24936;46.328;11.026;2024-02-14T11:10:00;95004.25;;;10.51;100.00
39223;BME280;24936;46.328;11.026;2024-02-14T11:12:35;94997.81;;;11.29;100.00
39223;BME280;24936;46.328;11.026;2024-02-14T11:17:42;94997.28;;;10.83;100.00
39223;BME280;24936;46.328;11.026;2024-02-14T11:22:52;95004.81;;;11.40;85.75
39223;BME280;24936;46.328;11.026;2024-02-14T11:25:18;95001.28;;;11.60;82.63
39223;BME280;24936;46.328;11.026;2024-02-14T11:27:47;95000.44;;;11.29;70.90
39223;BME280;24936;46.328;11.026;2024-02-14T11:30:12;94993.28;;;11.41;74.51
39223;BME280;24936;46.328;11.026;2024-02-14T11:32:40;94988.63;;;10.71;76.52
39223;BME280;24936;46.328;11.026;2024-02-14T11:35:11;94984.25;;;11.34;74.61
39223;BME280;24936;46.328;11.026;2024-02-14T11:37:37;94997.19;;;12.58;60.27
39223;BME280;24936;46.328;11.026;2024-02-14T11:40:03;94987.41;;;13.07;58.67
39223;BME280;24936;46.328;11.026;2024-02-14T11:42:29;94977.84;;;12.87;61.89
39223;BME280;24936;46.328;11.026;2024-02-14T11:44:56;94982.09;;;10.96;61.42
39223;BME280;24936;46.328;11.026;2024-02-14T11:47:25;94966.78;;;10.59;69.99
39223;BME280;24936;46.328;11.026;2024-02-14T11:49:50;94966.31;;;10.96;75.08
39223;BME280;24936;46.328;11.026;2024-02-14T11:52:17;94965.63;;;12.17;64.25
39223;BME280;24936;46.328;11.026;2024-02-14T11:54:46;94965.88;;;13.02;76.16
39223;BME280;24936;46.328;11.026;2024-02-14T11:57:19;94968.69;;;12.51;65.59
39223;BME280;24936;46.328;11.026;2024-02-14T11:59:44;94966.13;;;11.91;64.52
39223;BME280;24936;46.328;11.026;2024-02-14T12:02:14;94958.00;;;12.23;75.36
39223;BME280;24936;46.328;11.026;2024-02-14T12:04:40;94959.63;;;12.05;75.70
39223;BME280;24936;46.328;11.026;2024-02-14T12:07:10;94951.63;;;11.66;75.00
39223;BME280;24936;46.328;11.026;2024-02-14T12:09:35;94945.22;;;11.58;83.20
39223;BME280;24936;46.328;11.026;2024-02-14T12:12:01;94940.34;;;11.13;84.05
39223;BME280;24936;46.328;11.026;2024-02-14T12:14:27;94937.03;;;11.21;81.93
39223;BME280;24936;46.328;11.026;2024-02-14T12:16:59;94926.66;;;11.19;77.48
39223;BME280;24936;46.328;11.026;2024-02-14T12:19:27;94928.44;;;11.19;83.54
39223;BME280;24936;46.328;11.026;2024-02-14T12:21:54;94936.31;;;10.88;78.89
39223;BME280;24936;46.328;11.026;2024-02-14T12:24:21;94925.59;;;11.00;83.87
39223;BME280;24936;46.328;11.026;2024-02-14T12:26:48;94933.13;;;11.46;72.18
39223;BME280;24936;46.328;11.026;2024-02-14T12:29:17;94921.06;;;11.53;82.13
39223;BME280;24936;46.328;11.026;2024-02-14T12:31:43;94916.94;;;11.20;76.07
39223;BME280;24936;46.328;11.026;2024-02-14T12:34:10;94914.09;;;11.32;80.69
39223;BME280;24936;46.328;11.026;2024-02-14T12:36:36;94915.47;;;11.37;74.72
39223;BME280;24936;46.328;11.026;2024-02-14T12:39:02;94921.03;;;11.34;74.37
39223;BME280;24936;46.328;11.026;2024-02-14T12:41:29;94926.31;;;11.43;75.83
39223;BME280;24936;46.328;11.026;2024-02-14T12:43:58;94928.41;;;12.00;67.47
39223;BME280;24936;46.328;11.026;2024-02-14T12:46:25;94934.94;;;12.26;59.66